Flugplatz Hahnweide

METAR ETHL TAF ETHL
-4 °C
°C
-
°C
12m
Âge
22:32:20
LT
21:32
UTC
0 ft

1.000

2.000

3.000

4.000

5.000

FEW 500
SCT 1.200
MVFR
<?= Yii::t('app', 'Wind direction') ?> <?= Yii::t('app', 'of'); ?>
020°
07:41
Lever du soleil
93%
Humidité
Cisaillement du vent
Fermé/neige
Portée visuelle RWY
Condition RWY
Visibilité vert.
Visibilité min.
CAVOK
Tendance
Correction
Rapport spécial
1033 hPa
QNH
METAR ETHL 062120Z 02002KT 6000 FEW005 SCT012 M04/M05 Q1033 WHT
épars
2 kt
2 kt
22:00
LIFR
10 kt
23:00
IFR
10 kt
00:00
IFR
10 kt
01:00
IFR
10 kt
02:00
IFR
10 kt
03:00
IFR
10 kt
6 km
Vue
Non
Base cloud
2 kt
Vent
metar-taf.com/EDST

Metar-Taf.com

Décodeur visuel

Nous et des tiers suivons ton comportement Internet sur notre site Web à l'aide de cookies. Si tu continues, nous supposons que tu es d'accord avec notre Politique en matière de cookies.